createdAt,value
2018-12-29T00:03:11.338Z,4.95
2018-12-29T00:08:17.842Z,4.97
2018-12-29T00:13:23.714Z,5.02
2018-12-29T00:18:31.044Z,4.98
2018-12-29T00:23:38.217Z,4.97
2018-12-29T00:28:43.577Z,5.01
2018-12-29T00:33:49.001Z,4.99
2018-12-29T00:39:00.037Z,5.08
2018-12-29T00:44:04.989Z,5.11
2018-12-29T00:49:10.459Z,5.02
2018-12-29T00:54:15.994Z,5.00
2018-12-29T00:59:21.074Z,4.97
2018-12-29T01:04:27.563Z,5.02
2018-12-29T01:09:34.081Z,5.08
2018-12-29T01:14:40.309Z,5.03
2018-12-29T01:19:45.677Z,5.01
2018-12-29T01:24:52.317Z,5.00
2018-12-29T01:30:08.185Z,4.99
2018-12-29T01:35:14.121Z,5.03
2018-12-29T01:40:21.013Z,5.04
2018-12-29T01:45:26.417Z,5.01
2018-12-29T01:50:31.521Z,5.00
2018-12-29T01:55:36.715Z,4.99
2018-12-29T02:00:42.108Z,5.10
2018-12-29T02:05:56.390Z,5.08
2018-12-29T02:11:02.478Z,5.13
2018-12-29T02:16:08.353Z,5.06
2018-12-29T02:21:16.052Z,5.11
2018-12-29T02:26:25.696Z,5.11
2018-12-29T02:31:39.847Z,5.12
2018-12-29T02:36:47.763Z,5.03
2018-12-29T02:41:52.656Z,5.00
2018-12-29T02:46:59.269Z,4.91
2018-12-29T02:52:04.549Z,4.89
2018-12-29T02:57:14.026Z,4.92
2018-12-29T03:02:19.125Z,4.90
2018-12-29T03:07:26.591Z,4.86
2018-12-29T03:12:32.697Z,4.87
2018-12-29T03:17:38.509Z,4.83
2018-12-29T03:22:43.597Z,4.81
2018-12-29T03:27:49.513Z,4.77
2018-12-29T03:32:55.457Z,4.75
2018-12-29T03:38:00.905Z,4.75
2018-12-29T03:43:05.997Z,4.77
2018-12-29T03:48:11.459Z,4.73
2018-12-29T03:53:16.942Z,4.78
2018-12-29T03:58:23.123Z,4.77
2018-12-29T04:03:28.271Z,4.78
2018-12-29T04:08:33.395Z,4.76
2018-12-29T04:13:39.196Z,4.75
2018-12-29T04:18:46.316Z,4.70
2018-12-29T04:23:51.372Z,4.68
2018-12-29T04:28:56.428Z,4.64
2018-12-29T04:34:01.914Z,4.62
2018-12-29T04:39:08.231Z,4.61
2018-12-29T04:44:15.286Z,4.59
2018-12-29T04:49:20.957Z,4.62
2018-12-29T04:54:26.090Z,4.62
2018-12-29T04:59:31.168Z,4.67
2018-12-29T05:04:36.344Z,4.64
2018-12-29T05:09:41.812Z,4.63
2018-12-29T05:14:46.979Z,4.59
2018-12-29T05:19:54.390Z,4.57
2018-12-29T05:25:01.730Z,4.61
2018-12-29T05:30:07.046Z,4.67
2018-12-29T05:35:12.932Z,4.67
2018-12-29T05:40:18.043Z,4.68
2018-12-29T05:45:23.468Z,4.69
2018-12-29T05:50:28.608Z,4.68
2018-12-29T05:55:33.800Z,4.64
2018-12-29T06:00:39.016Z,4.70
2018-12-29T06:05:44.050Z,4.67
2018-12-29T06:10:49.134Z,4.67
2018-12-29T06:15:54.380Z,4.71
2018-12-29T06:21:00.171Z,4.74
2018-12-29T06:26:05.327Z,4.80
2018-12-29T06:31:13.044Z,4.83
2018-12-29T06:36:21.954Z,4.83
2018-12-29T06:41:27.050Z,4.78
2018-12-29T06:46:35.407Z,4.78
2018-12-29T06:51:40.708Z,4.81
2018-12-29T06:56:45.815Z,4.81
2018-12-29T07:01:52.091Z,4.67
2018-12-29T07:06:56.924Z,4.65
2018-12-29T07:12:03.634Z,4.68
2018-12-29T07:17:10.256Z,4.60
2018-12-29T07:22:15.726Z,4.62
2018-12-29T07:27:22.004Z,4.62
2018-12-29T07:32:28.486Z,4.65
2018-12-29T07:37:34.819Z,4.58
2018-12-29T07:42:44.402Z,4.61
2018-12-29T07:48:01.419Z,4.57
2018-12-29T07:53:06.822Z,4.54
2018-12-29T07:58:11.923Z,4.53
2018-12-29T08:03:18.189Z,4.59
2018-12-29T08:08:23.603Z,4.58
2018-12-29T08:13:30.219Z,4.53
2018-12-29T08:18:35.610Z,4.55
2018-12-29T08:23:40.712Z,4.67
2018-12-29T08:28:46.369Z,4.68
2018-12-29T08:33:51.493Z,4.67
2018-12-29T08:38:56.570Z,4.67
2018-12-29T08:44:01.649Z,4.70
2018-12-29T08:49:06.655Z,4.76
2018-12-29T08:54:12.587Z,4.76
2018-12-29T08:59:17.996Z,4.70
2018-12-29T09:04:24.938Z,4.77
2018-12-29T09:09:31.837Z,4.75
2018-12-29T09:14:36.923Z,4.79
2018-12-29T09:19:41.994Z,4.77
2018-12-29T09:24:47.135Z,4.76
2018-12-29T09:29:52.694Z,4.76
2018-12-29T09:34:58.142Z,4.79
2018-12-29T09:40:03.389Z,4.86
2018-12-29T09:45:08.565Z,4.88
2018-12-29T09:50:14.040Z,4.95
2018-12-29T09:55:19.259Z,5.02
2018-12-29T10:00:26.205Z,5.15
2018-12-29T10:05:32.901Z,5.24
2018-12-29T10:10:38.232Z,5.29
2018-12-29T10:15:43.380Z,5.30
2018-12-29T10:21:02.745Z,5.30
2018-12-29T10:26:07.859Z,5.44
2018-12-29T10:31:26.453Z,5.67
2018-12-29T10:36:34.627Z,5.73
2018-12-29T10:41:40.353Z,5.89
2018-12-29T10:46:45.939Z,6.20
2018-12-29T10:51:54.091Z,6.34
2018-12-29T10:57:00.093Z,6.25
2018-12-29T11:02:06.276Z,6.18
2018-12-29T11:07:11.964Z,6.17
2018-12-29T11:12:17.136Z,6.06
2018-12-29T11:17:22.513Z,5.95
2018-12-29T11:22:29.900Z,5.93
2018-12-29T11:27:35.042Z,5.97
2018-12-29T11:32:40.647Z,5.91
2018-12-29T11:37:47.232Z,5.86
2018-12-29T11:42:53.343Z,5.86
2018-12-29T11:48:05.477Z,5.82
2018-12-29T11:53:11.291Z,5.82
2018-12-29T11:58:26.713Z,5.92
2018-12-29T12:03:31.999Z,6.02
2018-12-29T12:08:37.180Z,6.19
2018-12-29T12:13:42.352Z,6.28
2018-12-29T12:18:47.919Z,6.31
2018-12-29T12:23:53.689Z,6.21
2018-12-29T12:29:07.946Z,6.11
2018-12-29T12:34:13.449Z,6.08
2018-12-29T12:39:19.580Z,6.03
2018-12-29T12:44:25.837Z,6.26
2018-12-29T12:49:31.274Z,6.42
2018-12-29T12:54:38.088Z,6.29
2018-12-29T12:59:52.759Z,6.23
2018-12-29T13:05:00.256Z,6.20
2018-12-29T13:10:06.210Z,6.23
2018-12-29T13:15:13.267Z,6.23
2018-12-29T13:20:18.560Z,6.26
2018-12-29T13:25:23.702Z,6.28
2018-12-29T13:30:28.969Z,6.21
2018-12-29T13:35:34.457Z,6.18
2018-12-29T13:40:40.697Z,6.16
2018-12-29T13:45:46.644Z,6.25
2018-12-29T13:50:52.456Z,6.32
2018-12-29T13:55:57.567Z,6.25
2018-12-29T14:01:02.689Z,6.33
2018-12-29T14:06:09.139Z,6.39
2018-12-29T14:11:15.429Z,6.31
2018-12-29T14:16:21.127Z,6.28
2018-12-29T14:21:26.934Z,6.29
2018-12-29T14:26:33.158Z,6.34
2018-12-29T14:31:42.937Z,6.22
2018-12-29T14:36:48.502Z,6.15
2018-12-29T14:41:55.150Z,6.20
2018-12-29T14:47:00.686Z,6.19
2018-12-29T14:52:06.161Z,6.09
2018-12-29T14:57:14.374Z,6.10
2018-12-29T15:02:23.616Z,6.15
2018-12-29T15:07:29.803Z,6.11
2018-12-29T15:12:42.797Z,6.01
2018-12-29T15:17:50.816Z,6.04
2018-12-29T15:22:56.338Z,5.94
2018-12-29T15:28:02.664Z,5.86
2018-12-29T15:33:09.493Z,5.84
2018-12-29T15:38:15.440Z,5.81
2018-12-29T15:43:21.938Z,5.76
2018-12-29T15:48:28.064Z,5.79
2018-12-29T15:53:33.229Z,5.78
2018-12-29T15:58:39.075Z,5.71
2018-12-29T16:03:44.799Z,5.69
2018-12-29T16:08:51.347Z,5.72
2018-12-29T16:13:57.125Z,5.77
2018-12-29T16:19:02.899Z,5.74
2018-12-29T16:24:08.721Z,5.71
2018-12-29T16:29:13.872Z,5.71
2018-12-29T16:34:19.074Z,5.83
2018-12-29T16:39:24.487Z,5.91
2018-12-29T16:44:31.075Z,5.90
2018-12-29T16:49:38.684Z,5.90
2018-12-29T16:54:46.227Z,6.02
2018-12-29T16:59:51.918Z,6.05
2018-12-29T17:04:57.970Z,6.06
2018-12-29T17:10:03.903Z,6.06
2018-12-29T17:15:09.177Z,6.08
2018-12-29T17:20:17.319Z,6.06
2018-12-29T17:25:26.438Z,6.07
2018-12-29T17:30:32.754Z,6.12
2018-12-29T17:35:42.894Z,6.11
2018-12-29T17:40:57.641Z,6.15
2018-12-29T17:46:03.448Z,6.18
2018-12-29T17:51:09.512Z,6.26
2018-12-29T17:56:14.789Z,6.30
2018-12-29T18:01:20.296Z,6.28
2018-12-29T18:06:26.702Z,6.27
2018-12-29T18:11:32.342Z,6.32
2018-12-29T18:16:39.184Z,6.25
2018-12-29T18:21:50.956Z,6.19
2018-12-29T18:26:59.200Z,6.16
2018-12-29T18:32:06.024Z,6.11
2018-12-29T18:37:12.565Z,6.11
2018-12-29T18:42:18.750Z,6.04
2018-12-29T18:47:27.193Z,5.99
2018-12-29T18:52:34.973Z,5.98
2018-12-29T18:57:42.647Z,5.89
2018-12-29T19:02:49.433Z,5.84
2018-12-29T19:08:01.232Z,5.72
2018-12-29T19:13:10.946Z,5.50
2018-12-29T19:18:16.195Z,5.34
2018-12-29T19:23:23.466Z,5.18
2018-12-29T19:28:29.119Z,5.12
2018-12-29T19:33:36.348Z,5.05
2018-12-29T19:38:45.858Z,4.97
2018-12-29T19:43:51.861Z,4.94
2018-12-29T19:49:21.867Z,4.89
2018-12-29T19:54:27.450Z,4.82
2018-12-29T19:59:40.215Z,4.83
2018-12-29T20:04:48.022Z,4.83
2018-12-29T20:10:11.412Z,4.89
2018-12-29T20:15:16.822Z,4.87
2018-12-29T20:20:23.436Z,4.85
2018-12-29T20:25:30.946Z,4.83
2018-12-29T20:30:41.610Z,4.80
2018-12-29T20:35:49.431Z,4.75
2018-12-29T20:40:58.701Z,4.80
2018-12-29T20:46:07.303Z,4.83
2018-12-29T20:51:25.537Z,4.81
2018-12-29T20:56:30.973Z,4.87
2018-12-29T21:02:03.163Z,4.92
2018-12-29T21:07:33.376Z,4.96
2018-12-29T21:12:39.914Z,4.99
2018-12-29T21:17:45.729Z,5.00
2018-12-29T21:22:53.130Z,5.04
2018-12-29T21:27:59.274Z,5.08
2018-12-29T21:33:04.664Z,5.13
2018-12-29T21:38:22.921Z,5.18
2018-12-29T21:43:29.576Z,5.26
2018-12-29T21:48:45.904Z,5.28
2018-12-29T21:53:53.594Z,5.32
2018-12-29T21:59:06.072Z,5.39
2018-12-29T22:04:14.180Z,5.38
2018-12-29T22:09:39.194Z,5.39
2018-12-29T22:14:50.661Z,5.34
2018-12-29T22:19:59.430Z,5.38
2018-12-29T22:25:05.751Z,5.38
2018-12-29T22:30:12.061Z,5.46
2018-12-29T22:35:20.422Z,5.57
2018-12-29T22:40:38.694Z,5.62
2018-12-29T22:45:49.800Z,5.68
2018-12-29T22:50:56.211Z,5.71
2018-12-29T22:56:03.136Z,5.77
2018-12-29T23:01:10.497Z,5.84
2018-12-29T23:06:16.615Z,5.86
2018-12-29T23:11:29.264Z,5.85
2018-12-29T23:16:36.258Z,5.84
2018-12-29T23:22:07.138Z,5.90
2018-12-29T23:27:14.514Z,5.91
2018-12-29T23:32:21.656Z,5.94
2018-12-29T23:37:31.789Z,5.99
2018-12-29T23:42:47.874Z,6.02
2018-12-29T23:47:55.791Z,6.06
2018-12-29T23:53:04.716Z,6.13
2018-12-29T23:58:10.939Z,6.19
